Time;durP1;ratioP1;P1;durP2;ratioP2;P2;SDS_P1;SDS_P2;PMS_P1;PMS_P2;Temp;Humidity;BMP_temperature;BMP_pressure;BME280_temperature;BME280_humidity;BME280_pressure;Samples;Min_cycle;Max_cycle;Signal;HPM_P1;HPM_P2
2022/10/14 00:00:46;;;;;;;12.60;11.40;;;15.50;99.90;;;;;;10378981;28;20199;-82
2022/10/14 00:05:48;;;;;;;11.67;10.53;;;15.50;99.90;;;;;;10344446;28;20675;-82
2022/10/14 00:10:52;;;;;;;10.60;9.70;;;15.50;99.90;;;;;;10332551;23;20250;-81
2022/10/14 00:15:54;;;;;;;12.37;9.10;;;15.50;99.90;;;;;;10379383;28;20214;-80
2022/10/14 00:20:57;;;;;;;14.90;10.60;;;15.40;99.90;;;;;;10323224;28;20251;-81
2022/10/14 00:26:01;;;;;;;11.37;10.40;;;15.40;99.90;;;;;;10313799;28;20226;-81
2022/10/14 00:31:05;;;;;;;13.60;11.00;;;15.40;99.90;;;;;;10282809;28;20205;-81
2022/10/14 00:36:08;;;;;;;12.00;10.87;;;15.40;99.90;;;;;;10298279;28;20200;-80
2022/10/14 00:41:13;;;;;;;13.07;11.60;;;15.40;99.90;;;;;;10363179;28;20294;-81
2022/10/14 00:46:18;;;;;;;12.73;11.40;;;15.40;99.90;;;;;;10323716;28;20247;-81
2022/10/14 00:51:21;;;;;;;11.87;10.73;;;15.40;99.90;;;;;;10337324;28;20282;-79
2022/10/14 00:56:29;;;;;;;12.23;11.00;;;15.40;99.90;;;;;;10335846;28;20314;-80
2022/10/14 01:01:31;;;;;;;12.03;10.13;;;15.40;99.90;;;;;;10317334;28;20199;-80
2022/10/14 01:06:42;;;;;;;13.87;11.60;;;15.40;99.90;;;;;;10343560;28;20251;-81
2022/10/14 01:11:58;;;;;;;13.30;12.10;;;15.40;99.90;;;;;;10298630;28;20636;-81
2022/10/14 01:17:08;;;;;;;13.40;12.30;;;15.30;99.90;;;;;;10376176;28;20224;-78
2022/10/14 01:22:19;;;;;;;14.00;12.70;;;15.30;99.90;;;;;;10339932;28;20222;-80
2022/10/14 01:27:50;;;;;;;12.50;11.30;;;15.30;99.90;;;;;;10378005;28;20226;-81
2022/10/14 01:33:09;;;;;;;13.23;11.93;;;15.40;99.90;;;;;;10347224;28;20199;-81
2022/10/14 01:38:14;;;;;;;13.13;12.03;;;15.40;99.90;;;;;;10349283;28;20589;-81
2022/10/14 01:43:20;;;;;;;14.07;12.87;;;15.50;99.90;;;;;;10373582;28;20226;-81
2022/10/14 01:48:31;;;;;;;14.77;13.53;;;15.50;99.90;;;;;;10355948;28;20217;-81
2022/10/14 01:53:39;;;;;;;14.60;12.60;;;15.50;99.90;;;;;;10377902;28;20195;-80
2022/10/14 01:58:45;;;;;;;15.00;13.50;;;15.60;99.90;;;;;;10339531;28;20214;-81
2022/10/14 02:03:49;;;;;;;15.40;13.83;;;15.60;99.90;;;;;;10376674;28;20219;-81
2022/10/14 02:09:01;;;;;;;14.10;12.80;;;15.60;99.90;;;;;;10338198;28;20229;-81
2022/10/14 02:14:15;;;;;;;13.93;12.60;;;15.60;99.90;;;;;;10358674;28;20195;-81
2022/10/14 02:19:26;;;;;;;15.13;13.90;;;15.60;99.90;;;;;;10355107;28;20241;-81
2022/10/14 02:24:32;;;;;;;16.20;14.87;;;15.60;99.90;;;;;;10374217;28;20258;-81
2022/10/14 02:29:36;;;;;;;14.57;13.27;;;15.50;99.90;;;;;;10358302;28;20214;-81
2022/10/14 02:34:41;;;;;;;14.27;12.97;;;15.50;99.90;;;;;;10371091;28;20238;-81
2022/10/14 02:39:52;;;;;;;15.00;13.90;;;15.50;99.90;;;;;;10339997;28;20234;-80
2022/10/14 02:44:54;;;;;;;15.40;14.00;;;15.50;99.90;;;;;;10372022;28;20277;-81
2022/10/14 02:49:57;;;;;;;14.57;13.37;;;15.50;99.90;;;;;;10328282;28;20215;-81
2022/10/14 02:54:59;;;;;;;16.10;13.77;;;15.50;99.90;;;;;;10328340;28;20214;-80
2022/10/14 03:00:02;;;;;;;15.50;14.40;;;15.50;99.90;;;;;;10345508;28;20266;-81
2022/10/14 03:05:06;;;;;;;16.87;15.10;;;15.50;99.90;;;;;;10346384;28;20203;-81
2022/10/14 03:10:09;;;;;;;16.47;14.80;;;15.50;99.90;;;;;;10338464;28;20269;-80
2022/10/14 03:15:12;;;;;;;20.80;18.10;;;15.50;99.90;;;;;;10367178;28;20220;-80
2022/10/14 03:20:17;;;;;;;14.93;13.83;;;15.50;99.90;;;;;;10355801;28;20230;-81
2022/10/14 03:25:23;;;;;;;16.83;15.13;;;15.40;99.90;;;;;;10337844;28;20221;-80
2022/10/14 03:30:32;;;;;;;16.80;15.30;;;15.40;99.90;;;;;;10385880;28;20212;-80
2022/10/14 03:35:45;;;;;;;16.30;14.70;;;15.40;99.90;;;;;;10371208;28;20219;-80
2022/10/14 03:40:51;;;;;;;18.13;16.47;;;15.40;99.90;;;;;;10340108;28;20218;-80
2022/10/14 03:45:54;;;;;;;18.13;16.37;;;15.30;99.90;;;;;;10364974;28;20730;-79
2022/10/14 03:51:00;;;;;;;19.30;17.43;;;15.30;99.90;;;;;;10381042;28;20221;-80
2022/10/14 03:56:05;;;;;;;19.93;18.33;;;15.20;99.90;;;;;;10353728;28;20218;-80
2022/10/14 04:01:08;;;;;;;20.00;18.37;;;15.20;99.90;;;;;;10360425;28;20199;-80
2022/10/14 04:06:30;;;;;;;19.70;18.17;;;15.20;99.90;;;;;;10375257;28;20713;-80
2022/10/14 04:11:35;;;;;;;20.67;18.47;;;15.20;99.90;;;;;;10329494;28;20285;-81
2022/10/14 04:16:42;;;;;;;22.03;20.07;;;15.20;99.90;;;;;;10346620;28;20223;-81
2022/10/14 04:21:48;;;;;;;19.87;18.20;;;15.20;99.90;;;;;;10337278;28;20659;-82
2022/10/14 04:26:54;;;;;;;21.17;18.97;;;15.20;99.90;;;;;;10345558;28;20623;-81
2022/10/14 04:32:15;;;;;;;19.47;17.67;;;15.30;99.90;;;;;;10338346;28;20194;-82
2022/10/14 04:37:19;;;;;;;21.23;19.33;;;15.30;99.90;;;;;;10356005;28;20219;-80
2022/10/14 04:42:36;;;;;;;15.40;13.90;;;15.30;99.90;;;;;;10330794;28;20214;-80
2022/10/14 04:47:41;;;;;;;26.37;23.97;;;15.30;99.90;;;;;;10370768;28;20221;-80
2022/10/14 04:52:45;;;;;;;20.63;18.97;;;15.30;99.90;;;;;;10364287;28;20230;-80
2022/10/14 04:57:48;;;;;;;20.43;18.63;;;15.30;99.90;;;;;;10313057;28;20223;-80
2022/10/14 05:02:50;;;;;;;22.47;20.80;;;15.30;99.90;;;;;;10337995;28;20207;-80
2022/10/14 05:07:56;;;;;;;22.60;20.60;;;15.30;99.90;;;;;;10347209;28;20250;-78
2022/10/14 05:13:18;;;;;;;21.50;19.63;;;15.30;99.90;;;;;;10341099;28;20199;-80
2022/10/14 05:18:32;;;;;;;17.53;16.17;;;15.30;99.90;;;;;;10324154;28;20223;-79
2022/10/14 05:23:39;;;;;;;20.03;18.13;;;15.30;99.90;;;;;;10354938;28;20272;-79
2022/10/14 05:28:41;;;;;;;20.10;18.20;;;15.40;99.90;;;;;;10352633;28;20226;-79
2022/10/14 05:33:44;;;;;;;20.60;18.70;;;15.40;99.90;;;;;;10373275;28;20198;-78
2022/10/14 05:38:54;;;;;;;19.90;18.20;;;15.40;99.90;;;;;;10389389;28;20218;-80
2022/10/14 05:43:57;;;;;;;19.00;17.60;;;15.40;99.90;;;;;;10315532;28;20250;-79
2022/10/14 05:49:04;;;;;;;16.20;14.90;;;15.40;99.90;;;;;;10366701;28;20218;-80
2022/10/14 05:54:11;;;;;;;18.53;16.83;;;15.50;99.90;;;;;;10376855;28;20195;-79
2022/10/14 05:59:15;;;;;;;18.97;17.07;;;15.50;99.90;;;;;;10361839;28;20226;-79
2022/10/14 06:04:18;;;;;;;18.70;17.13;;;15.50;99.90;;;;;;10365441;28;20218;-78
2022/10/14 06:09:22;;;;;;;18.90;17.40;;;15.50;99.90;;;;;;10384929;23;20233;-77
2022/10/14 06:14:24;;;;;;;20.10;18.50;;;15.50;99.90;;;;;;10359067;28;20674;-77
2022/10/14 06:19:27;;;;;;;21.43;19.43;;;15.50;99.90;;;;;;10363471;28;20553;-77
2022/10/14 06:24:30;;;;;;;24.57;21.20;;;15.50;99.90;;;;;;10360866;28;20215;-77
2022/10/14 06:29:36;;;;;;;22.43;20.43;;;15.50;99.90;;;;;;10358464;28;20303;-77
2022/10/14 06:34:39;;;;;;;20.97;19.27;;;15.50;99.90;;;;;;10374490;28;20630;-77
2022/10/14 06:39:43;;;;;;;19.53;17.73;;;15.60;99.90;;;;;;10365808;28;20228;-77
2022/10/14 06:44:45;;;;;;;20.23;18.43;;;15.60;99.90;;;;;;10353318;28;20266;-78
2022/10/14 06:49:47;;;;;;;20.00;18.40;;;15.70;99.90;;;;;;10336522;28;20244;-78
2022/10/14 06:54:51;;;;;;;18.07;16.57;;;15.70;99.90;;;;;;10353605;28;20201;-77
2022/10/14 06:59:53;;;;;;;22.67;20.57;;;15.70;99.90;;;;;;10343268;28;20221;-76
2022/10/14 07:04:56;;;;;;;20.00;18.50;;;15.70;99.90;;;;;;10351532;28;20222;-77
2022/10/14 07:10:00;;;;;;;17.93;16.43;;;15.80;99.90;;;;;;10354092;28;20332;-77
2022/10/14 07:15:03;;;;;;;17.90;16.60;;;15.90;99.90;;;;;;10350689;28;20327;-78
2022/10/14 07:20:06;;;;;;;17.30;15.70;;;15.90;99.90;;;;;;10373576;28;20686;-77
2022/10/14 07:25:10;;;;;;;16.40;15.10;;;15.90;99.90;;;;;;10354985;28;20234;-78
2022/10/14 07:30:13;;;;;;;15.87;14.47;;;15.90;99.90;;;;;;10350485;28;20214;-79
2022/10/14 07:35:15;;;;;;;17.30;15.53;;;16.00;99.90;;;;;;10355204;28;20241;-76
2022/10/14 07:40:19;;;;;;;16.17;14.77;;;16.00;99.90;;;;;;10349060;28;20225;-77
2022/10/14 07:45:21;;;;;;;14.30;13.27;;;16.20;99.90;;;;;;10355365;28;20640;-78
2022/10/14 07:50:23;;;;;;;15.33;13.97;;;16.30;99.90;;;;;;10333492;28;20830;-81
2022/10/14 07:55:27;;;;;;;13.73;12.47;;;16.50;99.90;;;;;;10359722;28;20258;-79
2022/10/14 08:00:29;;;;;;;13.60;12.50;;;16.50;99.90;;;;;;10363655;28;20222;-80
2022/10/14 08:05:31;;;;;;;20.20;17.77;;;16.60;99.90;;;;;;10365005;28;20865;-80
2022/10/14 08:10:35;;;;;;;13.80;12.60;;;16.60;99.90;;;;;;10364466;28;20399;-80
2022/10/14 08:15:41;;;;;;;11.10;10.20;;;16.60;99.90;;;;;;10354309;28;20198;-78
2022/10/14 08:20:43;;;;;;;19.67;17.73;;;16.60;99.90;;;;;;10365035;28;20584;-81
2022/10/14 08:25:48;;;;;;;15.53;14.23;;;16.70;99.90;;;;;;10354116;28;20244;-81
2022/10/14 08:30:51;;;;;;;14.50;12.47;;;16.70;99.90;;;;;;10365727;28;20215;-80
2022/10/14 08:35:53;;;;;;;12.60;11.50;;;16.80;99.90;;;;;;10363660;28;20194;-80
2022/10/14 08:41:06;;;;;;;13.30;11.47;;;16.80;99.90;;;;;;10367682;28;20305;-81
2022/10/14 08:46:15;;;;;;;13.60;12.50;;;16.90;99.90;;;;;;10354981;28;20226;-81
2022/10/14 08:51:21;;;;;;;11.43;10.50;;;17.00;99.90;;;;;;10366534;28;20211;-81
2022/10/14 08:56:24;;;;;;;11.20;10.10;;;17.10;99.90;;;;;;10361582;28;20195;-81
2022/10/14 09:01:29;;;;;;;9.53;8.83;;;17.10;99.90;;;;;;10361988;28;20217;-78
2022/10/14 09:06:33;;;;;;;8.63;7.83;;;17.30;99.90;;;;;;10365794;28;20322;-80
2022/10/14 09:11:41;;;;;;;10.00;9.20;;;17.40;99.90;;;;;;10322736;28;20215;-80
2022/10/14 09:16:44;;;;;;;8.87;8.13;;;17.40;99.90;;;;;;10296504;28;20211;-79
2022/10/14 09:21:51;;;;;;;8.73;7.90;;;17.50;99.90;;;;;;10329477;28;20260;-79
2022/10/14 09:26:56;;;;;;;8.43;7.83;;;17.60;99.90;;;;;;10361391;28;20226;-79
2022/10/14 09:32:01;;;;;;;7.83;7.07;;;17.70;99.90;;;;;;10353305;28;20273;-78
2022/10/14 09:37:20;;;;;;;8.13;7.37;;;17.70;99.90;;;;;;10358945;28;20215;-78
2022/10/14 09:42:27;;;;;;;9.23;8.33;;;17.70;99.90;;;;;;10353348;28;20748;-78
2022/10/14 09:47:29;;;;;;;11.63;10.53;;;17.70;99.90;;;;;;10361150;28;20637;-78
2022/10/14 09:52:32;;;;;;;8.67;7.97;;;17.70;99.90;;;;;;10358013;28;20209;-79
2022/10/14 09:57:35;;;;;;;7.90;7.23;;;17.80;99.90;;;;;;10368200;28;20214;-78
2022/10/14 10:02:41;;;;;;;8.90;8.13;;;17.90;99.90;;;;;;10357976;28;20552;-78
2022/10/14 10:07:43;;;;;;;8.43;7.83;;;18.10;99.90;;;;;;10330892;28;20223;-78
2022/10/14 10:12:46;;;;;;;10.20;9.20;;;18.20;99.90;;;;;;10325341;28;20274;-78
2022/10/14 10:17:50;;;;;;;10.47;9.67;;;18.30;99.90;;;;;;10321041;28;20215;-78
2022/10/14 10:22:52;;;;;;;8.97;8.17;;;18.40;99.90;;;;;;10326750;28;20577;-79
2022/10/14 10:27:58;;;;;;;8.37;7.70;;;18.50;99.90;;;;;;10324902;28;20550;-79
2022/10/14 10:33:15;;;;;;;7.50;7.00;;;18.60;99.90;;;;;;10325437;28;20206;-79
2022/10/14 10:38:23;;;;;;;9.20;7.83;;;18.70;99.90;;;;;;10319423;28;20230;-79
2022/10/14 10:43:43;;;;;;;8.30;7.47;;;18.80;99.90;;;;;;10320236;28;20206;-78
2022/10/14 10:48:49;;;;;;;7.63;6.90;;;18.80;99.90;;;;;;10320949;28;20215;-78
2022/10/14 10:54:06;;;;;;;7.17;6.57;;;18.80;99.90;;;;;;10318783;28;20652;-79
2022/10/14 10:59:38;;;;;;;7.43;6.27;;;18.80;99.90;;;;;;10327592;28;20215;-78
2022/10/14 11:04:47;;;;;;;8.30;6.43;;;18.80;99.90;;;;;;10319242;28;20208;-78
2022/10/14 11:15:34;;;;;;;10.10;6.30;;;18.90;99.90;;;;;;10315107;28;20187;-78
2022/10/14 11:20:46;;;;;;;7.70;6.90;;;18.80;99.90;;;;;;10319616;28;20235;-79
2022/10/14 11:25:56;;;;;;;7.73;7.03;;;18.70;99.90;;;;;;10316775;28;20211;-78
2022/10/14 11:31:08;;;;;;;9.47;7.50;;;18.50;99.90;;;;;;10363207;28;20246;-78
2022/10/14 11:36:21;;;;;;;7.87;6.73;;;18.30;99.90;;;;;;10375392;28;20218;-78
2022/10/14 11:41:31;;;;;;;8.20;7.50;;;18.30;99.90;;;;;;10340718;28;20590;-78
2022/10/14 11:46:41;;;;;;;7.67;7.17;;;18.30;99.90;;;;;;10369759;28;20241;-78
2022/10/14 11:51:49;;;;;;;7.43;6.90;;;18.30;99.90;;;;;;10338354;28;20192;-79
2022/10/14 11:56:57;;;;;;;8.83;6.70;;;18.30;99.90;;;;;;10364871;28;20219;-78
2022/10/14 12:02:19;;;;;;;7.47;6.97;;;18.50;99.90;;;;;;10370836;28;20197;-78
2022/10/14 12:07:28;;;;;;;7.70;6.90;;;18.70;99.90;;;;;;10333768;28;20221;-78
2022/10/14 12:12:32;;;;;;;8.07;7.40;;;18.80;99.90;;;;;;10370520;28;20210;-77
2022/10/14 12:17:42;;;;;;;7.20;6.60;;;18.90;99.90;;;;;;10331986;28;20335;-78
2022/10/14 12:22:47;;;;;;;5.23;4.73;;;19.00;99.90;;;;;;10331343;28;20250;-78
2022/10/14 12:27:51;;;;;;;7.10;5.80;;;19.00;99.90;;;;;;10385535;28;20229;-77
2022/10/14 12:33:02;;;;;;;6.53;5.87;;;19.10;99.90;;;;;;10330526;28;20616;-79
2022/10/14 12:38:04;;;;;;;4.73;4.10;;;19.10;99.90;;;;;;10290367;28;20304;-78
2022/10/14 12:43:16;;;;;;;5.90;5.40;;;19.20;99.90;;;;;;10288481;28;20202;-81
2022/10/14 12:48:22;;;;;;;5.47;4.97;;;19.30;99.90;;;;;;10289872;28;20231;-80
2022/10/14 12:53:27;;;;;;;6.03;5.00;;;19.30;99.90;;;;;;10370195;28;20195;-78
2022/10/14 12:58:33;;;;;;;4.73;4.30;;;19.30;99.90;;;;;;10351019;28;20212;-78
2022/10/14 13:03:42;;;;;;;6.47;5.10;;;19.30;99.90;;;;;;10369230;28;20186;-80
2022/10/14 13:09:19;;;;;;;4.90;4.50;;;19.30;99.90;;;;;;10330370;28;20228;-78
2022/10/14 13:14:24;;;;;;;4.67;4.43;;;19.30;99.90;;;;;;10362975;28;20659;-80
2022/10/14 13:19:45;;;;;;;5.53;4.50;;;19.20;99.90;;;;;;10334464;28;20210;-78
2022/10/14 13:24:49;;;;;;;4.90;4.60;;;19.20;99.90;;;;;;10369242;28;20297;-79
2022/10/14 13:30:02;;;;;;;3.80;3.60;;;19.20;99.90;;;;;;10360617;28;20223;-78
2022/10/14 13:35:13;;;;;;;5.30;5.00;;;19.20;99.90;;;;;;10337897;28;20210;-78
2022/10/14 13:40:25;;;;;;;4.47;4.27;;;19.10;99.90;;;;;;10364440;28;20241;-78
2022/10/14 13:45:32;;;;;;;4.57;4.10;;;19.00;99.90;;;;;;10347006;28;20202;-79
2022/10/14 13:50:37;;;;;;;4.13;3.93;;;18.90;99.90;;;;;;10367024;28;20219;-79
2022/10/14 13:55:45;;;;;;;4.63;4.20;;;18.80;99.90;;;;;;10335531;28;20198;-78
2022/10/14 14:01:00;;;;;;;9.17;6.07;;;18.80;99.90;;;;;;10347600;28;20273;-79
2022/10/14 14:06:08;;;;;;;7.17;6.57;;;18.70;99.90;;;;;;10310685;28;20254;-78
2022/10/14 14:11:17;;;;;;;5.13;4.63;;;18.70;99.90;;;;;;10354144;28;20273;-80
2022/10/14 14:16:22;;;;;;;7.77;5.83;;;18.70;99.90;;;;;;10340832;28;20725;-78
2022/10/14 14:21:26;;;;;;;12.43;11.80;;;18.50;99.90;;;;;;10331323;28;20631;-78
2022/10/14 14:26:37;;;;;;;15.13;14.30;;;18.20;99.90;;;;;;10321766;28;20222;-79
2022/10/14 14:31:40;;;;;;;16.20;15.23;;;17.90;99.90;;;;;;10322626;28;20222;-78
2022/10/14 14:36:42;;;;;;;16.87;15.70;;;17.60;99.90;;;;;;10322624;28;20199;-79
2022/10/14 14:41:51;;;;;;;16.97;15.67;;;17.50;99.90;;;;;;10344914;28;20203;-78
2022/10/14 14:46:56;;;;;;;15.63;14.63;;;17.30;99.90;;;;;;10320093;28;20231;-79
2022/10/14 14:51:59;;;;;;;15.90;14.90;;;17.20;99.90;;;;;;10331667;28;20230;-79
2022/10/14 14:57:06;;;;;;;14.93;14.13;;;17.20;99.90;;;;;;10349685;28;20215;-78
2022/10/14 15:02:15;;;;;;;14.17;13.47;;;17.10;99.90;;;;;;10355527;28;20198;-79
2022/10/14 15:07:23;;;;;;;14.70;14.00;;;17.10;99.90;;;;;;10367847;28;20223;-79
2022/10/14 15:12:29;;;;;;;15.20;14.10;;;17.10;99.90;;;;;;10364598;28;20254;-79
2022/10/14 15:17:33;;;;;;;12.90;12.30;;;17.10;99.90;;;;;;10367476;28;20277;-79
2022/10/14 15:22:37;;;;;;;13.57;12.97;;;17.10;99.90;;;;;;10355138;28;20198;-79
2022/10/14 15:27:56;;;;;;;13.10;12.50;;;17.10;99.90;;;;;;10365841;28;20671;-80
2022/10/14 15:33:00;;;;;;;8.03;7.40;;;17.00;99.90;;;;;;10357584;28;20206;-79
2022/10/14 15:38:02;;;;;;;12.60;11.80;;;16.90;99.90;;;;;;10363989;28;20230;-79
2022/10/14 15:43:11;;;;;;;13.50;12.50;;;16.90;99.90;;;;;;10355553;28;20218;-79
2022/10/14 15:48:19;;;;;;;6.60;6.20;;;16.90;99.90;;;;;;10364334;28;20306;-78
2022/10/14 15:53:21;;;;;;;7.93;7.40;;;16.80;99.90;;;;;;10355997;28;20625;-78
2022/10/14 15:58:24;;;;;;;12.13;11.43;;;16.80;99.90;;;;;;10379055;28;20281;-79
2022/10/14 16:03:26;;;;;;;12.90;12.20;;;16.80;99.90;;;;;;10362880;28;20206;-78
2022/10/14 16:08:28;;;;;;;6.33;6.03;;;16.80;99.90;;;;;;10351816;28;20223;-78
2022/10/14 16:13:32;;;;;;;13.20;12.50;;;16.80;99.90;;;;;;10362763;28;20250;-78
2022/10/14 16:18:34;;;;;;;13.33;12.53;;;16.70;99.90;;;;;;10353818;28;20304;-79
2022/10/14 16:23:37;;;;;;;10.23;9.73;;;16.70;99.90;;;;;;10366626;28;20203;-79
2022/10/14 16:28:40;;;;;;;17.90;16.60;;;16.70;99.90;;;;;;10351666;28;20306;-79
2022/10/14 16:33:43;;;;;;;13.77;12.63;;;16.70;99.90;;;;;;10363479;28;20281;-79
2022/10/14 16:38:45;;;;;;;10.80;10.17;;;16.70;99.90;;;;;;10352356;28;20298;-79
2022/10/14 16:43:48;;;;;;;12.27;11.67;;;16.70;99.90;;;;;;10350639;28;20274;-78
2022/10/14 16:48:53;;;;;;;11.93;11.43;;;16.60;99.90;;;;;;10362725;28;20252;-79
2022/10/14 16:53:54;;;;;;;13.33;12.47;;;16.60;99.90;;;;;;10350430;28;20212;-79
2022/10/14 16:58:58;;;;;;;11.97;11.07;;;16.60;99.90;;;;;;10366532;28;20249;-79
2022/10/14 17:04:00;;;;;;;11.80;11.30;;;16.50;99.90;;;;;;10350305;28;20203;-79
2022/10/14 17:09:02;;;;;;;11.37;10.70;;;16.50;99.90;;;;;;10369900;28;20214;-79
2022/10/14 17:14:06;;;;;;;11.97;11.47;;;16.50;99.90;;;;;;10363758;28;20214;-78
2022/10/14 17:19:10;;;;;;;10.83;10.23;;;16.50;99.90;;;;;;10346559;28;20214;-78
2022/10/14 17:24:13;;;;;;;12.07;11.57;;;16.40;99.90;;;;;;10365090;28;20279;-79
2022/10/14 17:29:17;;;;;;;11.20;10.60;;;16.40;99.90;;;;;;10349496;28;20228;-79
2022/10/14 17:34:20;;;;;;;12.10;11.50;;;16.40;99.90;;;;;;10367666;28;20206;-79
2022/10/14 17:39:23;;;;;;;13.50;12.80;;;16.40;99.90;;;;;;10349026;28;20238;-79
2022/10/14 17:44:27;;;;;;;13.77;12.97;;;16.40;99.90;;;;;;10367525;28;20203;-79
2022/10/14 17:49:30;;;;;;;10.90;10.37;;;16.40;99.90;;;;;;10346714;28;20231;-79
2022/10/14 17:54:32;;;;;;;13.50;12.60;;;16.40;99.90;;;;;;10349172;28;20804;-79
2022/10/14 17:59:35;;;;;;;14.57;13.37;;;16.50;99.90;;;;;;10368475;28;20298;-79
2022/10/14 18:04:38;;;;;;;14.80;13.70;;;16.50;99.90;;;;;;10338387;28;20187;-79
2022/10/14 18:09:42;;;;;;;13.30;12.40;;;16.50;99.90;;;;;;10385453;23;20230;-80
2022/10/14 18:14:45;;;;;;;14.67;13.67;;;16.50;99.90;;;;;;10385047;28;20187;-80
2022/10/14 18:19:48;;;;;;;53.30;48.90;;;16.50;99.90;;;;;;10385708;28;20206;-80
2022/10/14 18:24:50;;;;;;;14.67;13.80;;;16.50;99.90;;;;;;10389488;28;20209;-80
2022/10/14 18:29:53;;;;;;;10.00;9.50;;;16.50;99.90;;;;;;10379173;28;20222;-80
2022/10/14 18:34:55;;;;;;;13.17;12.47;;;16.50;99.90;;;;;;10395671;28;20217;-80
2022/10/14 18:39:57;;;;;;;11.30;10.70;;;16.50;99.90;;;;;;10377345;28;20657;-80
2022/10/14 18:45:01;;;;;;;15.53;14.33;;;16.40;99.90;;;;;;10374394;28;20686;-80
2022/10/14 18:50:03;;;;;;;13.70;12.73;;;16.40;99.90;;;;;;10388660;28;20633;-79
2022/10/14 18:55:07;;;;;;;11.93;11.33;;;16.30;99.90;;;;;;10394171;28;20182;-80
2022/10/14 19:00:12;;;;;;;11.90;11.30;;;16.30;99.90;;;;;;10390080;28;20217;-80
2022/10/14 19:05:15;;;;;;;13.00;12.40;;;16.20;99.90;;;;;;10385221;28;20187;-79
2022/10/14 19:10:17;;;;;;;12.73;12.03;;;16.20;99.90;;;;;;10385016;28;20225;-79
2022/10/14 19:15:24;;;;;;;19.17;17.73;;;16.10;99.90;;;;;;10385956;28;20201;-79
2022/10/14 19:20:26;;;;;;;13.00;12.20;;;16.00;99.90;;;;;;10367913;28;20223;-80
2022/10/14 19:25:28;;;;;;;11.47;10.97;;;16.00;99.90;;;;;;10384998;28;20178;-80
2022/10/14 19:30:32;;;;;;;11.30;10.80;;;15.90;99.90;;;;;;10369672;28;20709;-80
2022/10/14 19:35:34;;;;;;;13.50;12.60;;;15.80;99.90;;;;;;10366591;28;20655;-79
2022/10/14 19:40:36;;;;;;;9.47;8.93;;;15.80;99.90;;;;;;10385905;28;20223;-80
2022/10/14 19:45:41;;;;;;;12.33;11.73;;;15.80;99.90;;;;;;10378157;28;20230;-79
2022/10/14 19:50:43;;;;;;;12.10;11.50;;;15.70;99.90;;;;;;10378540;28;20211;-82
2022/10/14 19:55:45;;;;;;;12.07;11.40;;;15.70;99.90;;;;;;10381239;28;20698;-83
2022/10/14 20:00:49;;;;;;;11.93;10.90;;;15.60;99.90;;;;;;10381439;28;20241;-83
2022/10/14 20:05:58;;;;;;;11.70;11.00;;;15.50;99.90;;;;;;10365393;28;20770;-83
2022/10/14 20:11:01;;;;;;;12.70;11.80;;;15.50;99.90;;;;;;10381884;28;20296;-83
2022/10/14 20:16:07;;;;;;;11.20;10.60;;;15.40;99.90;;;;;;10383087;28;20186;-83
2022/10/14 20:21:13;;;;;;;10.67;10.07;;;15.40;99.90;;;;;;10364921;28;20238;-85
2022/10/14 20:26:17;;;;;;;11.00;10.50;;;15.40;99.90;;;;;;10354225;28;20309;-84
2022/10/14 20:31:24;;;;;;;12.43;11.83;;;15.40;99.90;;;;;;10368762;28;20210;-85
2022/10/14 20:36:26;;;;;;;11.13;10.53;;;15.30;99.90;;;;;;10355308;28;20253;-85
2022/10/14 20:41:28;;;;;;;11.23;10.70;;;15.30;99.90;;;;;;10371578;28;20211;-85
2022/10/14 20:46:34;;;;;;;10.87;10.10;;;15.30;99.90;;;;;;10355017;28;20241;-85
2022/10/14 20:51:36;;;;;;;11.80;11.20;;;15.30;99.90;;;;;;10369998;28;20265;-85
2022/10/14 20:56:39;;;;;;;11.80;11.30;;;15.30;99.90;;;;;;10354157;28;20186;-85
2022/10/14 21:01:42;;;;;;;11.70;11.10;;;15.30;99.90;;;;;;10355240;28;20674;-85
2022/10/14 21:06:44;;;;;;;10.87;10.37;;;15.30;99.90;;;;;;10354622;28;20207;-86
2022/10/14 21:11:46;;;;;;;10.50;10.10;;;15.30;99.90;;;;;;10354572;28;20257;-86
2022/10/14 21:16:50;;;;;;;11.37;10.37;;;15.30;99.90;;;;;;10371120;28;20602;-85
2022/10/14 21:21:52;;;;;;;11.93;11.43;;;15.40;99.90;;;;;;10359465;28;20218;-85
2022/10/14 21:26:56;;;;;;;11.70;11.10;;;15.30;99.90;;;;;;10356316;28;20681;-86
2022/10/14 21:32:01;;;;;;;12.10;11.50;;;15.30;99.90;;;;;;10362578;28;20245;-86
2022/10/14 21:37:06;;;;;;;10.10;9.60;;;15.40;99.90;;;;;;10357547;28;20199;-87
2022/10/14 21:42:08;;;;;;;11.20;10.40;;;15.40;99.90;;;;;;10364347;28;20210;-87
2022/10/14 21:47:12;;;;;;;11.20;10.67;;;15.40;99.90;;;;;;10369581;28;20222;-88
2022/10/14 21:52:14;;;;;;;10.47;9.90;;;15.50;99.90;;;;;;10375388;28;20240;-86
2022/10/14 21:57:17;;;;;;;10.80;10.40;;;15.50;99.90;;;;;;10353396;28;20225;-87
2022/10/14 22:02:21;;;;;;;10.33;9.90;;;15.50;99.90;;;;;;10387686;28;20198;-84
2022/10/14 22:07:23;;;;;;;10.57;9.87;;;15.50;99.90;;;;;;10375301;28;20225;-84
2022/10/14 22:12:27;;;;;;;11.03;10.43;;;15.50;99.90;;;;;;10376285;28;20210;-84
2022/10/14 22:17:30;;;;;;;11.87;11.10;;;15.50;99.90;;;;;;10356303;28;20237;-84
2022/10/14 22:22:32;;;;;;;11.30;10.67;;;15.50;99.90;;;;;;10327750;28;20293;-83
2022/10/14 22:27:34;;;;;;;11.43;10.93;;;15.50;99.90;;;;;;10361315;28;20217;-83
2022/10/14 22:32:38;;;;;;;11.30;10.80;;;15.50;99.90;;;;;;10380683;28;20189;-83
2022/10/14 22:37:40;;;;;;;11.47;10.50;;;15.50;99.90;;;;;;10364661;28;20917;-83
2022/10/14 22:42:42;;;;;;;12.53;11.70;;;15.50;99.90;;;;;;10374881;28;20585;-83
2022/10/14 22:47:45;;;;;;;11.30;10.80;;;15.50;99.90;;;;;;10373642;28;20225;-83
2022/10/14 22:52:48;;;;;;;12.63;12.03;;;15.50;99.90;;;;;;10347771;28;20207;-86
2022/10/14 22:57:50;;;;;;;12.33;11.83;;;15.50;99.90;;;;;;10338285;28;20218;-86
2022/10/14 23:02:55;;;;;;;12.30;11.70;;;15.50;99.90;;;;;;10340985;28;20668;-83
2022/10/14 23:07:57;;;;;;;11.03;10.57;;;15.50;99.90;;;;;;10357053;28;20223;-85
2022/10/14 23:12:59;;;;;;;11.60;11.17;;;15.50;99.90;;;;;;10337304;28;20287;-84
2022/10/14 23:18:03;;;;;;;10.83;10.33;;;15.50;99.90;;;;;;10353987;28;20210;-85
2022/10/14 23:23:05;;;;;;;11.03;10.53;;;15.50;99.90;;;;;;10336642;28;20196;-84
2022/10/14 23:28:07;;;;;;;11.90;11.50;;;15.60;99.90;;;;;;10353933;28;20215;-84
2022/10/14 23:33:13;;;;;;;11.47;10.87;;;15.60;99.90;;;;;;10338797;28;20194;-84
2022/10/14 23:38:15;;;;;;;11.17;10.77;;;15.60;99.90;;;;;;10341365;28;20230;-85
2022/10/14 23:43:18;;;;;;;12.23;11.80;;;15.60;99.90;;;;;;10365353;28;20199;-85
2022/10/14 23:48:22;;;;;;;10.90;10.50;;;15.60;99.90;;;;;;10373345;28;20214;-84
2022/10/14 23:53:25;;;;;;;10.43;10.00;;;15.60;99.90;;;;;;10374632;28;20226;-84
2022/10/14 23:58:28;;;;;;;11.13;10.67;;;15.70;99.90;;;;;;10401822;28;20657;-82
